Time;durP1;ratioP1;P1;durP2;ratioP2;P2;SDS_P1;SDS_P2;PMS_P1;PMS_P2;Temp;Humidity;BMP_temperature;BMP_pressure;BME280_temperature;BME280_humidity;BME280_pressure;Samples;Min_cycle;Max_cycle;Signal;HPM_P1;HPM_P2
2021/06/13 00:00:13;;;;;;;2.80;1.67;;;22.50;60.00;;;;;;2305468;54;21003;-66
2021/06/13 00:02:42;;;;;;;2.58;1.55;;;22.50;60.00;;;;;;2296142;54;21414;-66
2021/06/13 00:05:11;;;;;;;2.70;1.55;;;22.50;60.10;;;;;;2549813;53;21006;-70
2021/06/13 00:07:38;;;;;;;2.90;1.37;;;22.40;60.10;;;;;;2317622;54;20968;-66
2021/06/13 00:10:07;;;;;;;3.12;1.87;;;22.40;60.20;;;;;;2315173;54;21012;-69
2021/06/13 00:12:34;;;;;;;4.65;1.83;;;22.40;60.30;;;;;;2314191;54;20993;-66
2021/06/13 00:15:00;;;;;;;2.70;1.40;;;22.30;60.10;;;;;;2313562;54;20949;-67
2021/06/13 00:17:27;;;;;;;2.95;1.73;;;22.30;60.20;;;;;;2317714;54;20981;-66
2021/06/13 00:19:56;;;;;;;2.58;1.58;;;22.30;60.30;;;;;;2293506;54;21000;-67
2021/06/13 00:22:25;;;;;;;3.12;1.70;;;22.20;60.20;;;;;;2549062;53;20988;-66
2021/06/13 00:24:51;;;;;;;2.67;1.67;;;22.20;60.20;;;;;;2315458;54;20980;-66
2021/06/13 00:27:18;;;;;;;3.00;1.95;;;22.10;60.10;;;;;;2315042;55;20967;-68
2021/06/13 00:29:47;;;;;;;3.17;1.83;;;22.10;60.30;;;;;;2474217;53;20988;-66
2021/06/13 00:32:13;;;;;;;3.30;2.00;;;22.10;60.30;;;;;;2306031;54;20965;-67
2021/06/13 00:34:39;;;;;;;3.15;1.90;;;22.00;60.30;;;;;;2549737;53;21743;-66
2021/06/13 00:37:05;;;;;;;2.40;1.37;;;22.00;60.30;;;;;;2548673;53;20929;-66
2021/06/13 00:39:32;;;;;;;2.62;1.50;;;22.00;60.40;;;;;;2530972;53;21689;-67
2021/06/13 00:42:01;;;;;;;3.22;1.70;;;21.90;60.30;;;;;;2319508;54;20942;-66
2021/06/13 00:44:27;;;;;;;3.25;1.98;;;21.90;60.40;;;;;;2316430;54;21857;-68
2021/06/13 00:46:53;;;;;;;2.80;1.70;;;21.80;60.40;;;;;;2309720;54;20961;-68
2021/06/13 00:49:20;;;;;;;3.22;1.67;;;21.80;60.40;;;;;;2314302;54;20973;-67
2021/06/13 00:51:47;;;;;;;2.97;1.80;;;21.80;60.40;;;;;;2319749;54;20939;-71
2021/06/13 00:54:13;;;;;;;2.62;1.65;;;21.70;60.40;;;;;;2314718;54;21073;-66
2021/06/13 00:56:40;;;;;;;2.72;1.60;;;21.70;60.50;;;;;;2315272;54;21041;-66
2021/06/13 00:59:06;;;;;;;3.67;1.67;;;21.60;60.40;;;;;;2313839;54;20925;-71
2021/06/13 01:01:32;;;;;;;3.90;1.67;;;21.60;60.50;;;;;;2314318;54;22050;-67
2021/06/13 01:03:59;;;;;;;3.08;1.90;;;21.60;60.60;;;;;;2390213;53;20949;-66
2021/06/13 01:06:37;;;;;;;3.05;1.90;;;21.50;60.50;;;;;;2314909;54;20943;-67
2021/06/13 01:09:06;;;;;;;2.85;1.60;;;21.50;60.50;;;;;;2319395;54;21021;-66
2021/06/13 01:13:41;;;;;;;3.42;1.77;;;21.40;60.60;;;;;;2303528;54;21020;-66
2021/06/13 01:16:38;;;;;;;3.90;1.77;;;21.40;60.70;;;;;;2316585;54;20972;-66
2021/06/13 01:20:59;;;;;;;2.95;1.80;;;21.30;60.70;;;;;;2547132;53;21684;-69
2021/06/13 01:26:10;;;;;;;3.08;1.73;;;21.30;60.60;;;;;;2318099;54;21036;-67
2021/06/13 01:28:54;;;;;;;2.78;1.62;;;21.20;60.50;;;;;;2319639;53;21061;-69
2021/06/13 01:31:29;;;;;;;3.28;2.10;;;21.10;60.70;;;;;;2313081;54;21028;-66
2021/06/13 01:33:57;;;;;;;4.45;2.08;;;21.10;61.00;;;;;;2449187;53;21000;-67
2021/06/13 01:36:24;;;;;;;3.95;2.03;;;21.00;61.10;;;;;;2314423;54;20969;-71
2021/06/13 01:38:50;;;;;;;3.62;2.03;;;21.00;61.30;;;;;;2313997;54;20961;-66
2021/06/13 01:41:22;;;;;;;3.45;2.00;;;20.90;61.40;;;;;;2316379;54;20957;-67
2021/06/13 01:43:52;;;;;;;3.25;2.15;;;20.90;61.40;;;;;;2549469;53;21058;-66
2021/06/13 01:46:18;;;;;;;3.10;1.90;;;20.90;61.60;;;;;;2312968;54;21026;-66
2021/06/13 01:48:45;;;;;;;3.20;1.90;;;20.80;61.60;;;;;;2547793;53;20992;-66
2021/06/13 01:51:11;;;;;;;4.03;2.03;;;20.80;61.60;;;;;;2315155;54;20968;-66
2021/06/13 01:53:42;;;;;;;3.55;1.90;;;20.80;61.70;;;;;;2315647;53;20945;-66
2021/06/13 01:56:17;;;;;;;3.50;2.20;;;20.70;61.60;;;;;;2320592;54;20953;-66
2021/06/13 01:58:45;;;;;;;2.85;1.70;;;20.70;61.70;;;;;;2297917;54;20987;-68
2021/06/13 02:01:12;;;;;;;3.65;1.92;;;20.70;61.70;;;;;;2316025;53;21021;-71
2021/06/13 02:03:41;;;;;;;3.50;2.05;;;20.70;61.80;;;;;;2315089;54;21025;-65
2021/06/13 02:06:07;;;;;;;4.72;2.20;;;20.70;61.80;;;;;;2296584;54;20968;-66
2021/06/13 02:08:34;;;;;;;3.87;1.98;;;20.60;62.50;;;;;;2314851;54;20961;-68
2021/06/13 02:11:01;;;;;;;3.83;2.42;;;20.60;61.80;;;;;;2315346;54;20973;-66
2021/06/13 02:13:28;;;;;;;4.93;2.30;;;20.50;61.70;;;;;;2318927;54;21035;-68
2021/06/13 02:15:55;;;;;;;3.62;2.10;;;20.50;61.70;;;;;;2319528;54;21008;-66
2021/06/13 02:18:21;;;;;;;3.67;2.28;;;20.50;61.80;;;;;;2319510;54;21482;-66
2021/06/13 02:20:48;;;;;;;4.32;2.50;;;20.40;61.70;;;;;;2315696;54;21992;-71
2021/06/13 02:23:15;;;;;;;4.87;2.12;;;20.40;61.80;;;;;;2548616;53;20964;-67
2021/06/13 02:25:41;;;;;;;3.58;2.20;;;20.40;61.90;;;;;;2549700;53;20992;-67
2021/06/13 02:28:07;;;;;;;3.40;2.20;;;20.30;61.80;;;;;;2314912;54;21040;-68
2021/06/13 02:30:37;;;;;;;4.00;2.12;;;20.30;61.80;;;;;;2317571;54;21001;-67
2021/06/13 02:33:03;;;;;;;3.42;1.95;;;20.30;61.80;;;;;;2316260;54;20985;-66
2021/06/13 02:36:07;;;;;;;3.72;2.10;;;20.30;61.90;;;;;;2315422;54;21553;-66
2021/06/13 02:38:34;;;;;;;3.60;2.35;;;20.20;61.70;;;;;;2313621;54;21020;-71
2021/06/13 02:41:00;;;;;;;4.78;1.92;;;20.20;62.00;;;;;;2315810;54;20949;-71
2021/06/13 02:43:26;;;;;;;3.58;2.30;;;20.10;62.00;;;;;;2314736;54;21037;-67
2021/06/13 02:45:52;;;;;;;3.12;2.10;;;20.10;62.10;;;;;;2315437;54;20984;-64
2021/06/13 02:48:20;;;;;;;4.35;2.42;;;20.10;62.20;;;;;;2314396;54;20957;-66
2021/06/13 02:50:47;;;;;;;4.00;2.35;;;20.10;62.20;;;;;;2298153;54;21065;-66
2021/06/13 02:53:46;;;;;;;3.20;1.87;;;20.00;62.20;;;;;;2316147;54;21695;-65
2021/06/13 02:56:51;;;;;;;3.35;2.03;;;20.00;62.10;;;;;;2322325;54;21527;-66
2021/06/13 02:59:49;;;;;;;3.72;2.33;;;20.00;62.10;;;;;;2318716;54;21009;-71
2021/06/13 03:02:21;;;;;;;3.72;2.00;;;20.00;62.20;;;;;;2316867;54;20966;-68
2021/06/13 03:04:48;;;;;;;6.53;2.47;;;19.90;62.30;;;;;;2313787;54;21127;-66
2021/06/13 03:07:17;;;;;;;3.90;2.58;;;19.90;62.40;;;;;;2315757;54;21016;-69
2021/06/13 03:09:43;;;;;;;3.37;2.28;;;19.90;62.40;;;;;;2388412;54;21910;-66
2021/06/13 03:12:12;;;;;;;3.42;2.33;;;19.80;62.40;;;;;;2315347;54;20956;-68
2021/06/13 03:14:41;;;;;;;4.45;2.45;;;19.80;62.40;;;;;;2315166;54;21048;-67
2021/06/13 03:17:08;;;;;;;8.00;2.92;;;19.80;62.50;;;;;;2320312;54;21907;-66
2021/06/13 03:19:34;;;;;;;4.20;2.47;;;19.70;62.60;;;;;;2313457;54;21004;-72
2021/06/13 03:22:00;;;;;;;4.12;2.40;;;19.70;62.70;;;;;;2319096;54;21510;-66
2021/06/13 03:24:27;;;;;;;5.62;2.40;;;19.70;62.80;;;;;;2312153;54;21899;-68
2021/06/13 03:26:53;;;;;;;4.15;2.50;;;19.70;62.90;;;;;;2353406;54;20981;-66
2021/06/13 03:29:20;;;;;;;3.50;2.35;;;19.60;62.80;;;;;;2314165;54;21485;-67
2021/06/13 03:31:47;;;;;;;4.43;2.50;;;19.60;62.90;;;;;;2319221;54;21455;-65
2021/06/13 03:34:15;;;;;;;4.55;2.70;;;19.60;62.90;;;;;;2316989;54;21072;-68
2021/06/13 03:36:42;;;;;;;3.47;2.28;;;19.60;63.00;;;;;;2315435;54;20944;-66
2021/06/13 03:39:09;;;;;;;3.97;2.42;;;19.60;63.00;;;;;;2326235;54;20940;-66
2021/06/13 03:41:36;;;;;;;4.10;2.80;;;19.60;63.10;;;;;;2312133;54;20964;-67
2021/06/13 03:44:02;;;;;;;5.07;2.50;;;19.60;63.10;;;;;;2313938;54;20941;-67
2021/06/13 03:46:30;;;;;;;4.25;2.62;;;19.60;63.10;;;;;;2323563;54;21886;-66
2021/06/13 03:48:58;;;;;;;4.10;2.47;;;19.50;63.10;;;;;;2314010;54;21853;-69
2021/06/13 03:51:24;;;;;;;4.10;2.70;;;19.50;63.20;;;;;;2316832;54;20972;-65
2021/06/13 03:53:56;;;;;;;4.12;2.62;;;19.50;63.20;;;;;;2547666;53;20988;-66
2021/06/13 03:56:25;;;;;;;5.22;2.30;;;19.50;63.30;;;;;;2319643;54;21075;-71
2021/06/13 03:58:52;;;;;;;3.95;2.45;;;19.50;63.30;;;;;;2317562;54;21056;-66
2021/06/13 04:01:19;;;;;;;4.07;2.25;;;19.50;63.40;;;;;;2313536;54;21000;-64
2021/06/13 04:03:51;;;;;;;4.57;2.60;;;19.40;63.30;;;;;;2313943;54;20975;-69
2021/06/13 04:06:24;;;;;;;4.37;2.40;;;19.40;63.40;;;;;;2315533;54;20981;-66
2021/06/13 04:08:51;;;;;;;4.37;2.47;;;19.40;63.50;;;;;;2316744;54;21858;-68
2021/06/13 04:11:18;;;;;;;4.32;2.50;;;19.40;63.50;;;;;;2313535;54;21024;-65
2021/06/13 04:13:44;;;;;;;4.25;2.67;;;19.40;63.60;;;;;;2318437;54;21015;-68
2021/06/13 04:16:11;;;;;;;4.70;2.53;;;19.40;63.70;;;;;;2546877;53;21508;-66
2021/06/13 04:18:37;;;;;;;4.82;2.75;;;19.40;63.70;;;;;;2547148;53;20989;-66
2021/06/13 04:21:07;;;;;;;4.32;2.80;;;19.40;63.70;;;;;;2314085;54;20992;-66
2021/06/13 04:23:33;;;;;;;4.78;2.42;;;19.40;63.80;;;;;;2317131;54;21038;-68
2021/06/13 04:25:59;;;;;;;3.87;2.42;;;19.30;63.70;;;;;;2312998;54;20997;-67
2021/06/13 04:28:26;;;;;;;4.03;2.72;;;19.40;64.00;;;;;;2317566;54;20959;-66
2021/06/13 04:31:13;;;;;;;4.55;2.80;;;19.30;64.10;;;;;;2312378;54;20947;-69
2021/06/13 04:33:41;;;;;;;4.07;2.78;;;19.30;64.10;;;;;;2319458;54;21726;-66
2021/06/13 04:36:08;;;;;;;3.78;2.65;;;19.30;64.30;;;;;;2305874;54;20983;-66
2021/06/13 04:38:34;;;;;;;3.90;2.60;;;19.40;64.50;;;;;;2310343;54;20949;-71
2021/06/13 04:41:00;;;;;;;4.70;2.70;;;19.40;64.50;;;;;;2318285;54;21309;-68
2021/06/13 04:43:27;;;;;;;6.03;2.47;;;19.40;64.50;;;;;;2315754;54;20984;-67
2021/06/13 04:45:53;;;;;;;4.72;2.55;;;19.40;64.50;;;;;;2313914;54;20957;-67
2021/06/13 04:48:19;;;;;;;3.75;2.55;;;19.40;64.50;;;;;;2316854;54;21022;-66
2021/06/13 04:50:47;;;;;;;4.37;2.37;;;19.50;64.60;;;;;;2312634;54;20997;-68
2021/06/13 04:54:10;;;;;;;3.75;2.42;;;19.50;64.60;;;;;;2321672;53;20933;-66
2021/06/13 04:57:05;;;;;;;3.80;2.50;;;19.60;64.50;;;;;;2319393;54;21008;-66
2021/06/13 04:59:31;;;;;;;5.70;2.70;;;19.60;64.50;;;;;;2299604;54;20985;-66
2021/06/13 05:01:59;;;;;;;4.28;2.60;;;19.60;64.60;;;;;;2316685;54;20936;-67
2021/06/13 05:04:25;;;;;;;4.10;2.67;;;19.60;64.70;;;;;;2314361;54;21020;-66
2021/06/13 05:06:51;;;;;;;5.05;2.60;;;19.60;64.80;;;;;;2314197;54;20989;-66
2021/06/13 05:09:18;;;;;;;5.20;2.30;;;19.70;64.90;;;;;;2548442;53;20941;-66
2021/06/13 05:11:47;;;;;;;3.45;2.22;;;19.70;64.90;;;;;;2313903;54;20997;-66
2021/06/13 05:14:13;;;;;;;4.22;2.80;;;19.70;64.90;;;;;;2296068;54;20976;-67
2021/06/13 05:16:41;;;;;;;5.32;2.55;;;19.80;65.10;;;;;;2318117;54;20961;-69
2021/06/13 05:19:08;;;;;;;4.15;2.60;;;19.80;65.20;;;;;;2550433;53;20970;-70
2021/06/13 05:21:35;;;;;;;4.68;3.20;;;19.90;65.20;;;;;;2313768;54;21519;-67
2021/06/13 05:24:01;;;;;;;4.20;2.62;;;20.00;65.30;;;;;;2317314;54;20969;-67
2021/06/13 05:26:31;;;;;;;4.68;3.40;;;20.00;66.10;;;;;;2313280;54;20992;-67
2021/06/13 05:28:57;;;;;;;4.50;2.90;;;20.00;65.20;;;;;;2314197;54;21699;-67
2021/06/13 05:31:26;;;;;;;4.82;3.20;;;20.00;65.10;;;;;;2318463;54;20949;-71
2021/06/13 05:33:53;;;;;;;6.05;3.10;;;20.10;64.90;;;;;;2312654;54;21144;-69
2021/06/13 05:36:21;;;;;;;5.32;2.92;;;20.10;64.90;;;;;;2313950;54;20977;-66
2021/06/13 05:38:49;;;;;;;4.50;2.97;;;20.20;65.00;;;;;;2316413;54;20941;-67
2021/06/13 05:41:15;;;;;;;4.57;2.95;;;20.30;65.10;;;;;;2318603;54;21893;-66
2021/06/13 05:43:41;;;;;;;6.03;3.03;;;20.30;65.10;;;;;;2312169;54;20984;-66
2021/06/13 05:46:07;;;;;;;5.00;3.25;;;20.30;64.90;;;;;;2318991;54;21013;-69
2021/06/13 05:48:35;;;;;;;5.80;3.00;;;20.40;64.80;;;;;;2313924;54;20973;-67
2021/06/13 05:51:02;;;;;;;4.28;2.67;;;20.40;64.70;;;;;;2547602;53;21064;-68
2021/06/13 05:53:28;;;;;;;6.45;2.95;;;20.50;64.80;;;;;;2314289;54;21028;-71
2021/06/13 05:55:54;;;;;;;4.68;2.70;;;20.60;64.80;;;;;;2316401;54;20960;-66
2021/06/13 05:58:21;;;;;;;5.12;2.83;;;20.60;64.70;;;;;;2550160;53;21001;-66
2021/06/13 06:00:47;;;;;;;6.75;2.87;;;20.70;65.40;;;;;;2316757;54;21009;-68
2021/06/13 06:03:13;;;;;;;5.07;2.70;;;20.70;64.70;;;;;;2342204;54;21028;-67
2021/06/13 06:05:39;;;;;;;5.78;2.58;;;20.80;64.60;;;;;;2313956;54;21045;-67
2021/06/13 06:08:09;;;;;;;4.40;2.72;;;20.80;64.40;;;;;;2316672;54;20978;-66
2021/06/13 06:10:36;;;;;;;5.47;2.92;;;20.90;64.20;;;;;;2317058;54;20996;-70
2021/06/13 06:13:04;;;;;;;4.65;2.22;;;20.90;63.80;;;;;;2316274;54;20964;-68
2021/06/13 06:15:36;;;;;;;5.47;2.75;;;21.00;63.60;;;;;;2548249;53;21024;-70
2021/06/13 06:18:03;;;;;;;3.78;2.20;;;21.00;63.50;;;;;;2548162;53;21008;-66
2021/06/13 06:20:31;;;;;;;3.95;2.20;;;21.10;63.80;;;;;;2315607;54;20941;-68
2021/06/13 06:23:00;;;;;;;4.65;2.20;;;21.10;63.90;;;;;;2315157;54;20940;-69
2021/06/13 06:25:29;;;;;;;5.18;2.53;;;21.20;63.80;;;;;;2313469;54;21001;-66
2021/06/13 06:27:56;;;;;;;7.15;2.15;;;21.20;63.60;;;;;;2314869;54;20953;-69
2021/06/13 06:30:24;;;;;;;5.72;2.65;;;21.30;63.70;;;;;;2317073;54;20979;-67
2021/06/13 06:32:51;;;;;;;5.05;2.70;;;21.30;63.50;;;;;;2554173;53;21050;-66
2021/06/13 06:35:17;;;;;;;4.78;2.70;;;21.40;63.30;;;;;;2316566;54;20935;-66
2021/06/13 06:37:43;;;;;;;4.43;2.35;;;21.40;63.10;;;;;;2315154;54;20929;-67
2021/06/13 06:40:12;;;;;;;4.37;2.22;;;21.50;63.10;;;;;;2368029;53;21054;-70
2021/06/13 06:43:08;;;;;;;4.20;1.92;;;21.60;62.80;;;;;;2315546;54;21461;-68
2021/06/13 06:45:37;;;;;;;4.70;2.37;;;21.60;61.90;;;;;;2313057;54;20974;-66
2021/06/13 06:48:04;;;;;;;3.30;1.95;;;21.70;62.70;;;;;;2341722;53;21396;-67
2021/06/13 06:50:30;;;;;;;3.42;2.08;;;21.70;62.60;;;;;;2317024;54;20947;-66
2021/06/13 06:52:57;;;;;;;5.32;2.12;;;21.80;62.70;;;;;;2314094;54;20973;-68
2021/06/13 06:55:24;;;;;;;3.53;2.10;;;21.80;62.60;;;;;;2313911;54;21711;-68
2021/06/13 06:57:50;;;;;;;4.57;2.28;;;21.90;62.60;;;;;;2317339;54;22037;-66
2021/06/13 07:00:18;;;;;;;4.43;2.20;;;22.00;62.50;;;;;;2317041;54;21052;-68
2021/06/13 07:02:44;;;;;;;5.25;2.42;;;22.00;62.30;;;;;;2315185;54;20968;-70
2021/06/13 07:05:11;;;;;;;6.35;2.50;;;22.00;62.20;;;;;;2306278;54;21012;-69
2021/06/13 07:07:37;;;;;;;5.25;2.40;;;22.10;62.30;;;;;;2313792;54;21524;-70
2021/06/13 07:10:05;;;;;;;5.10;2.40;;;22.20;62.40;;;;;;2294127;54;1338783;-69
2021/06/13 07:12:31;;;;;;;4.40;2.60;;;22.30;62.30;;;;;;2486732;53;21106;-69
2021/06/13 07:14:58;;;;;;;3.60;1.87;;;22.30;62.00;;;;;;2313130;54;20963;-66
2021/06/13 07:17:25;;;;;;;5.22;2.50;;;22.40;62.60;;;;;;2349572;53;22154;-66
2021/06/13 07:19:51;;;;;;;4.62;2.22;;;22.50;61.70;;;;;;2322573;54;21022;-69
2021/06/13 07:22:17;;;;;;;6.35;2.17;;;22.50;61.60;;;;;;2539603;53;21029;-66
2021/06/13 07:24:47;;;;;;;4.65;2.00;;;22.60;61.80;;;;;;2307958;54;21040;-67
2021/06/13 07:27:13;;;;;;;3.83;2.15;;;22.70;61.90;;;;;;2302663;54;21053;-67
2021/06/13 07:29:39;;;;;;;5.05;1.87;;;22.80;61.90;;;;;;2307442;54;20959;-67
2021/06/13 07:32:05;;;;;;;3.97;1.98;;;22.90;61.80;;;;;;2314626;54;20927;-72
2021/06/13 07:34:32;;;;;;;5.87;2.25;;;23.00;61.80;;;;;;2314787;54;20986;-73
2021/06/13 07:37:02;;;;;;;4.65;2.12;;;23.00;61.60;;;;;;2308228;54;21004;-72
2021/06/13 07:39:29;;;;;;;3.50;2.12;;;23.10;61.40;;;;;;2323116;54;20959;-73
2021/06/13 07:41:55;;;;;;;3.92;2.12;;;23.20;61.20;;;;;;2318099;54;21587;-71
2021/06/13 07:44:21;;;;;;;5.28;1.65;;;23.20;61.20;;;;;;2315097;54;20975;-71
2021/06/13 07:46:48;;;;;;;5.37;2.10;;;23.40;61.30;;;;;;2548293;53;21064;-72
2021/06/13 07:49:14;;;;;;;3.72;2.03;;;23.40;61.00;;;;;;2301807;54;20955;-67
2021/06/13 07:51:40;;;;;;;4.03;2.28;;;23.50;60.80;;;;;;2315078;54;21013;-68
2021/06/13 07:54:06;;;;;;;3.83;2.30;;;23.50;60.80;;;;;;2322072;54;20973;-68
2021/06/13 07:56:53;;;;;;;4.28;2.03;;;23.60;60.50;;;;;;2300584;54;20931;-71
2021/06/13 07:59:19;;;;;;;4.05;1.90;;;23.70;59.60;;;;;;2314742;54;20963;-67
2021/06/13 08:01:48;;;;;;;4.05;1.92;;;23.80;60.60;;;;;;2313977;54;21072;-67
2021/06/13 08:04:14;;;;;;;4.65;2.35;;;23.80;60.00;;;;;;2318288;54;20949;-67
2021/06/13 08:06:45;;;;;;;4.55;2.25;;;23.80;60.00;;;;;;2553094;53;20995;-67
2021/06/13 08:09:21;;;;;;;5.30;2.20;;;23.90;59.70;;;;;;2315935;54;20964;-67
2021/06/13 08:11:49;;;;;;;3.75;2.05;;;23.90;59.90;;;;;;2314265;54;20959;-69
2021/06/13 08:14:16;;;;;;;3.65;2.03;;;24.00;59.80;;;;;;2319800;54;20991;-70
2021/06/13 08:16:42;;;;;;;4.80;2.20;;;24.00;59.60;;;;;;2398772;54;20967;-69
2021/06/13 08:19:08;;;;;;;4.85;2.20;;;24.00;59.50;;;;;;2307142;54;21040;-69
2021/06/13 08:21:35;;;;;;;4.87;2.47;;;24.10;59.30;;;;;;2315893;54;21021;-70
2021/06/13 08:24:02;;;;;;;5.62;3.05;;;24.10;59.20;;;;;;2315822;54;21034;-70
2021/06/13 08:26:30;;;;;;;5.82;2.45;;;24.10;59.10;;;;;;2325725;54;21078;-72
2021/06/13 08:28:57;;;;;;;4.00;2.35;;;24.10;59.00;;;;;;2539276;53;20963;-72
2021/06/13 08:31:25;;;;;;;6.87;2.33;;;24.20;58.90;;;;;;2311470;54;21942;-70
2021/06/13 08:33:51;;;;;;;4.22;2.42;;;24.20;59.00;;;;;;2310544;53;20961;-70
2021/06/13 08:36:17;;;;;;;5.87;2.40;;;24.20;58.90;;;;;;2317153;54;20993;-68
2021/06/13 08:38:48;;;;;;;4.90;2.33;;;24.30;58.80;;;;;;2298338;54;20944;-69
2021/06/13 08:41:15;;;;;;;3.95;2.20;;;24.30;58.80;;;;;;2427895;53;20968;-73
2021/06/13 08:43:45;;;;;;;6.07;2.58;;;24.30;58.80;;;;;;2308318;54;20951;-68
2021/06/13 08:46:11;;;;;;;8.65;2.15;;;24.30;58.50;;;;;;2551894;53;21004;-69
2021/06/13 08:48:39;;;;;;;4.62;2.47;;;24.30;58.70;;;;;;2314159;54;21784;-70
2021/06/13 08:51:05;;;;;;;5.15;1.92;;;24.40;58.60;;;;;;2314728;54;21068;-74
2021/06/13 08:53:31;;;;;;;5.43;2.60;;;24.40;58.80;;;;;;2315790;54;20955;-69
2021/06/13 08:55:58;;;;;;;5.15;2.17;;;24.50;58.70;;;;;;2318328;54;21351;-73
2021/06/13 08:58:24;;;;;;;4.70;2.25;;;24.50;58.60;;;;;;2314630;54;20974;-83
2021/06/13 09:00:51;;;;;;;3.72;2.12;;;24.50;58.40;;;;;;2324249;54;20984;-69
2021/06/13 09:03:18;;;;;;;3.05;1.85;;;24.60;58.50;;;;;;2314697;54;20981;-72
2021/06/13 09:05:44;;;;;;;5.05;1.90;;;24.60;58.40;;;;;;2550226;53;20939;-67
2021/06/13 09:08:12;;;;;;;4.93;1.90;;;24.70;58.50;;;;;;2318200;54;20959;-68
2021/06/13 09:10:41;;;;;;;4.05;1.90;;;24.80;58.40;;;;;;2316412;54;21022;-74
2021/06/13 09:13:24;;;;;;;5.00;1.67;;;24.80;58.30;;;;;;2319688;54;20960;-69
2021/06/13 09:15:59;;;;;;;5.53;2.22;;;24.90;57.50;;;;;;2317452;53;20985;-75
2021/06/13 09:18:59;;;;;;;4.78;2.22;;;25.00;57.70;;;;;;2309625;54;20987;-71
2021/06/13 09:21:53;;;;;;;5.57;2.00;;;25.00;56.60;;;;;;2313348;54;20992;-70
2021/06/13 09:24:27;;;;;;;5.28;1.73;;;25.10;56.40;;;;;;2318762;54;20990;-71
2021/06/13 09:26:54;;;;;;;4.57;2.03;;;25.10;56.90;;;;;;2316040;54;20927;-69
2021/06/13 09:29:21;;;;;;;4.30;1.95;;;25.10;57.20;;;;;;2316196;55;20983;-70
2021/06/13 09:32:03;;;;;;;3.87;1.80;;;25.10;57.30;;;;;;2413170;53;20972;-69
2021/06/13 09:34:29;;;;;;;3.53;1.92;;;25.10;57.20;;;;;;2314857;54;20939;-71
2021/06/13 09:37:03;;;;;;;5.95;1.80;;;25.10;57.80;;;;;;2310562;54;21007;-70
2021/06/13 09:39:29;;;;;;;4.15;2.05;;;25.20;56.30;;;;;;2324026;53;20958;-75
2021/06/13 09:41:57;;;;;;;5.68;2.10;;;25.20;57.00;;;;;;2316707;55;20999;-69
2021/06/13 09:44:23;;;;;;;4.45;2.10;;;25.20;57.00;;;;;;2317053;54;20951;-73
2021/06/13 09:46:54;;;;;;;4.60;2.30;;;25.20;56.90;;;;;;2316946;54;20915;-74
2021/06/13 09:49:20;;;;;;;5.35;2.00;;;25.30;56.80;;;;;;2316207;55;21037;-68
2021/06/13 09:51:52;;;;;;;4.37;2.10;;;25.30;57.00;;;;;;2319844;54;20971;-72
2021/06/13 09:54:26;;;;;;;4.95;2.12;;;25.30;56.70;;;;;;2310717;54;20963;-73
2021/06/13 09:56:53;;;;;;;3.60;2.05;;;25.40;56.60;;;;;;2316850;54;20953;-78
2021/06/13 09:59:24;;;;;;;4.22;2.08;;;25.40;57.00;;;;;;2315840;54;21035;-68
2021/06/13 10:01:59;;;;;;;4.93;2.45;;;25.50;56.70;;;;;;2320408;54;21020;-67
2021/06/13 10:04:30;;;;;;;4.32;2.10;;;25.60;56.30;;;;;;2322875;54;20981;-70
2021/06/13 10:07:03;;;;;;;3.80;1.70;;;25.60;56.40;;;;;;2314097;54;20987;-73
2021/06/13 10:09:40;;;;;;;4.55;2.00;;;25.60;56.80;;;;;;2320565;55;20990;-74
2021/06/13 10:12:07;;;;;;;4.28;2.08;;;25.70;56.00;;;;;;2293444;54;21484;-70
2021/06/13 10:14:35;;;;;;;4.03;2.40;;;25.70;56.30;;;;;;2326379;54;20980;-70
2021/06/13 10:17:02;;;;;;;4.47;2.20;;;25.80;56.20;;;;;;2313859;54;20955;-72
2021/06/13 10:19:42;;;;;;;4.10;2.42;;;25.80;56.00;;;;;;2316406;55;20983;-77
2021/06/13 10:22:09;;;;;;;3.85;2.00;;;25.80;55.40;;;;;;2320736;54;20964;-70
2021/06/13 10:24:37;;;;;;;5.53;2.00;;;25.80;55.90;;;;;;2366653;54;20926;-72
2021/06/13 10:27:08;;;;;;;4.40;2.35;;;25.80;55.60;;;;;;2317489;55;20972;-69
2021/06/13 10:29:35;;;;;;;4.00;2.00;;;25.80;55.20;;;;;;2292602;54;20943;-73
2021/06/13 10:32:03;;;;;;;5.12;2.25;;;25.80;55.40;;;;;;2323466;55;20965;-70
2021/06/13 10:34:30;;;;;;;4.37;2.00;;;25.90;55.50;;;;;;2316459;54;21030;-76
2021/06/13 10:36:58;;;;;;;4.30;2.10;;;25.80;55.50;;;;;;2315879;55;21003;-71
2021/06/13 10:39:26;;;;;;;5.35;2.12;;;25.90;55.50;;;;;;2319749;54;21006;-67
2021/06/13 10:41:54;;;;;;;5.28;2.15;;;25.90;55.60;;;;;;2312301;54;21420;-70
2021/06/13 10:44:24;;;;;;;3.92;2.17;;;25.90;55.40;;;;;;2316483;54;20923;-69
2021/06/13 10:46:53;;;;;;;5.78;2.20;;;25.90;55.20;;;;;;2319886;55;20963;-71
2021/06/13 10:49:37;;;;;;;3.45;1.62;;;26.00;55.00;;;;;;2317615;54;21016;-68
2021/06/13 10:52:22;;;;;;;4.37;1.87;;;26.00;53.80;;;;;;2320777;54;21178;-68
2021/06/13 10:54:59;;;;;;;6.28;1.83;;;26.10;54.20;;;;;;2301082;54;20952;-68
2021/06/13 10:57:33;;;;;;;4.40;1.75;;;26.10;54.30;;;;;;2487176;53;20947;-70
2021/06/13 11:00:03;;;;;;;3.78;1.70;;;26.10;54.90;;;;;;2316731;55;21029;-71
2021/06/13 11:03:56;;;;;;;3.45;1.60;;;26.10;55.00;;;;;;2315271;54;21009;-67
2021/06/13 11:06:48;;;;;;;4.35;1.67;;;26.20;54.20;;;;;;2316084;55;20927;-67
2021/06/13 11:09:17;;;;;;;3.90;1.77;;;26.30;53.80;;;;;;2556676;53;21114;-75
2021/06/13 11:11:44;;;;;;;3.12;1.60;;;26.30;54.90;;;;;;2316261;55;21492;-74
2021/06/13 11:14:26;;;;;;;3.37;1.60;;;26.30;54.60;;;;;;2385545;54;20963;-75
2021/06/13 11:16:58;;;;;;;3.87;1.60;;;26.40;53.40;;;;;;2325648;54;20986;-71
2021/06/13 11:19:28;;;;;;;3.60;1.40;;;26.40;53.60;;;;;;2308494;54;21937;-72
2021/06/13 11:22:32;;;;;;;3.00;1.37;;;26.50;53.90;;;;;;2324360;54;20965;-71
2021/06/13 11:24:59;;;;;;;3.85;1.40;;;26.50;52.50;;;;;;2313413;54;21424;-74
2021/06/13 11:27:30;;;;;;;4.30;1.58;;;26.50;53.90;;;;;;2319541;55;20934;-71
2021/06/13 11:29:57;;;;;;;5.25;1.42;;;26.50;53.50;;;;;;2316703;54;21031;-74
2021/06/13 11:32:49;;;;;;;3.50;1.48;;;26.60;53.70;;;;;;2316254;55;20936;-74
2021/06/13 11:35:34;;;;;;;3.05;1.25;;;26.70;52.60;;;;;;2319051;55;20955;-74
2021/06/13 11:41:23;;;;;;;3.78;1.70;;;26.70;52.80;;;;;;2316337;55;20951;-74
2021/06/13 11:43:49;;;;;;;3.05;1.60;;;26.80;53.50;;;;;;2450813;53;20955;-71
2021/06/13 11:46:33;;;;;;;2.92;1.27;;;26.80;53.80;;;;;;2316050;55;21006;-69
2021/06/13 11:48:59;;;;;;;5.32;1.70;;;26.80;52.70;;;;;;2552147;53;20973;-72
2021/06/13 11:51:26;;;;;;;3.10;1.60;;;26.80;53.80;;;;;;2314911;54;21014;-70
2021/06/13 11:54:06;;;;;;;3.22;1.23;;;26.90;53.60;;;;;;2316848;54;21936;-72
2021/06/13 11:56:36;;;;;;;3.00;1.40;;;26.90;52.40;;;;;;2316612;54;21014;-68
2021/06/13 11:59:10;;;;;;;3.62;1.40;;;27.00;53.00;;;;;;2316007;54;21705;-71
2021/06/13 12:01:37;;;;;;;3.60;1.60;;;27.00;52.90;;;;;;2315028;54;20966;-69
2021/06/13 12:04:13;;;;;;;2.58;1.17;;;27.10;53.10;;;;;;2316263;54;21036;-72
2021/06/13 12:06:40;;;;;;;4.32;1.17;;;27.10;52.10;;;;;;2316358;54;20947;-71
2021/06/13 12:09:11;;;;;;;4.87;1.12;;;27.20;52.80;;;;;;2316362;54;20960;-69
2021/06/13 12:11:56;;;;;;;3.97;1.30;;;27.20;52.10;;;;;;2317601;54;21016;-72
2021/06/13 12:14:36;;;;;;;5.85;1.40;;;27.30;51.80;;;;;;2275013;55;21027;-68
2021/06/13 12:20:31;;;;;;;2.30;1.00;;;27.40;50.80;;;;;;2408267;53;20967;-68
2021/06/13 12:23:10;;;;;;;2.28;1.02;;;27.40;52.30;;;;;;2315799;54;20969;-69
2021/06/13 12:28:29;;;;;;;2.95;1.15;;;27.40;51.90;;;;;;2552761;53;21001;-68
2021/06/13 12:30:55;;;;;;;2.65;1.02;;;27.40;50.80;;;;;;2466813;53;21024;-67
2021/06/13 12:33:28;;;;;;;3.00;0.93;;;27.50;51.30;;;;;;2312628;54;20929;-69
2021/06/13 12:35:57;;;;;;;3.87;1.15;;;27.50;50.70;;;;;;2316118;53;20941;-67
2021/06/13 12:38:26;;;;;;;2.20;1.00;;;27.50;50.40;;;;;;2529559;53;21129;-70
2021/06/13 12:40:54;;;;;;;2.95;0.80;;;27.50;50.30;;;;;;2313376;54;21000;-66
2021/06/13 12:43:39;;;;;;;3.00;0.90;;;27.50;50.00;;;;;;2313863;54;20960;-66
2021/06/13 12:46:07;;;;;;;2.08;0.75;;;27.50;48.50;;;;;;2318057;54;21754;-66
2021/06/13 12:48:33;;;;;;;2.47;0.90;;;27.50;49.90;;;;;;2316621;54;20996;-70
2021/06/13 12:51:00;;;;;;;2.22;0.82;;;27.60;49.90;;;;;;2316433;54;21860;-66
2021/06/13 12:53:30;;;;;;;1.70;0.70;;;27.60;49.70;;;;;;2548140;53;21288;-68
2021/06/13 12:55:57;;;;;;;2.35;0.73;;;27.60;49.10;;;;;;2308904;54;21583;-66
2021/06/13 12:58:23;;;;;;;1.48;0.70;;;27.70;49.40;;;;;;2313944;54;20993;-66
2021/06/13 13:00:51;;;;;;;2.60;1.00;;;27.70;49.10;;;;;;2546269;53;21002;-66
2021/06/13 13:03:19;;;;;;;2.75;0.93;;;27.70;49.00;;;;;;2316127;54;20969;-66
2021/06/13 13:06:06;;;;;;;1.70;0.68;;;27.70;49.00;;;;;;2311668;54;21032;-70
2021/06/13 13:08:42;;;;;;;3.37;1.05;;;27.80;47.80;;;;;;2317462;54;20965;-75
2021/06/13 13:11:10;;;;;;;2.50;0.90;;;27.80;48.10;;;;;;2368021;53;20993;-70
2021/06/13 13:13:41;;;;;;;3.35;0.85;;;27.80;48.80;;;;;;2316315;54;20940;-65
2021/06/13 13:16:24;;;;;;;2.05;0.90;;;27.80;48.90;;;;;;2546501;53;20993;-65
2021/06/13 13:18:50;;;;;;;3.33;1.00;;;27.90;48.50;;;;;;2310520;54;21015;-66